sensor_id;sensor_type;location;lat;lon;timestamp;temperature;humidity
44537;DHT22;30245;51.966;6.292;2024-03-02T00:00:51;14.30;48.40
44537;DHT22;30245;51.966;6.292;2024-03-02T00:03:18;14.30;48.50
44537;DHT22;30245;51.966;6.292;2024-03-02T00:05:44;14.20;48.50
44537;DHT22;30245;51.966;6.292;2024-03-02T00:08:22;14.20;48.60
44537;DHT22;30245;51.966;6.292;2024-03-02T00:10:48;14.20;48.50
44537;DHT22;30245;51.966;6.292;2024-03-02T00:13:13;14.30;48.50
44537;DHT22;30245;51.966;6.292;2024-03-02T00:18:12;14.30;48.30
44537;DHT22;30245;51.966;6.292;2024-03-02T00:20:38;14.30;48.40
44537;DHT22;30245;51.966;6.292;2024-03-02T00:23:06;14.40;48.50
44537;DHT22;30245;51.966;6.292;2024-03-02T00:25:39;14.40;48.40
44537;DHT22;30245;51.966;6.292;2024-03-02T00:28:19;14.30;48.30
44537;DHT22;30245;51.966;6.292;2024-03-02T00:33:23;14.40;48.40
44537;DHT22;30245;51.966;6.292;2024-03-02T00:35:50;14.30;48.40
44537;DHT22;30245;51.966;6.292;2024-03-02T00:38:15;14.40;48.40
44537;DHT22;30245;51.966;6.292;2024-03-02T00:40:42;14.40;48.40
44537;DHT22;30245;51.966;6.292;2024-03-02T00:45:53;14.40;48.20
44537;DHT22;30245;51.966;6.292;2024-03-02T00:48:18;14.40;48.20
44537;DHT22;30245;51.966;6.292;2024-03-02T00:50:44;14.40;48.30
44537;DHT22;30245;51.966;6.292;2024-03-02T00:53:12;14.40;48.30
44537;DHT22;30245;51.966;6.292;2024-03-02T00:55:38;14.40;48.30
44537;DHT22;30245;51.966;6.292;2024-03-02T00:58:03;14.50;48.20
44537;DHT22;30245;51.966;6.292;2024-03-02T01:00:29;14.50;48.30
44537;DHT22;30245;51.966;6.292;2024-03-02T01:02:54;14.50;48.30
44537;DHT22;30245;51.966;6.292;2024-03-02T01:05:20;14.50;48.20
44537;DHT22;30245;51.966;6.292;2024-03-02T01:07:46;14.60;48.30
44537;DHT22;30245;51.966;6.292;2024-03-02T01:10:12;14.50;48.20
44537;DHT22;30245;51.966;6.292;2024-03-02T01:12:37;14.50;48.40
44537;DHT22;30245;51.966;6.292;2024-03-02T01:15:03;14.50;48.30
44537;DHT22;30245;51.966;6.292;2024-03-02T01:17:31;14.50;48.40
44537;DHT22;30245;51.966;6.292;2024-03-02T01:19:56;14.60;48.40
44537;DHT22;30245;51.966;6.292;2024-03-02T01:22:23;14.50;48.20
44537;DHT22;30245;51.966;6.292;2024-03-02T01:24:51;14.60;48.40
44537;DHT22;30245;51.966;6.292;2024-03-02T01:27:16;14.60;48.30
44537;DHT22;30245;51.966;6.292;2024-03-02T01:29:42;14.60;48.30
44537;DHT22;30245;51.966;6.292;2024-03-02T01:32:07;14.60;48.30
44537;DHT22;30245;51.966;6.292;2024-03-02T01:34:33;14.60;48.30
44537;DHT22;30245;51.966;6.292;2024-03-02T01:36:58;14.60;48.40
44537;DHT22;30245;51.966;6.292;2024-03-02T01:39:24;14.50;48.40
44537;DHT22;30245;51.966;6.292;2024-03-02T01:41:49;14.60;48.60
44537;DHT22;30245;51.966;6.292;2024-03-02T01:44:15;14.50;48.70
44537;DHT22;30245;51.966;6.292;2024-03-02T01:46:41;14.60;48.90
44537;DHT22;30245;51.966;6.292;2024-03-02T01:49:06;14.60;48.90
44537;DHT22;30245;51.966;6.292;2024-03-02T01:51:32;14.50;48.90
44537;DHT22;30245;51.966;6.292;2024-03-02T01:53:57;14.50;49.00
44537;DHT22;30245;51.966;6.292;2024-03-02T01:56:23;14.50;49.10
44537;DHT22;30245;51.966;6.292;2024-03-02T01:58:49;14.50;49.10
44537;DHT22;30245;51.966;6.292;2024-03-02T02:01:15;14.50;49.10
44537;DHT22;30245;51.966;6.292;2024-03-02T02:03:43;14.50;49.20
44537;DHT22;30245;51.966;6.292;2024-03-02T02:06:09;14.60;49.20
44537;DHT22;30245;51.966;6.292;2024-03-02T02:08:37;14.60;49.20
44537;DHT22;30245;51.966;6.292;2024-03-02T02:11:03;14.50;49.30
44537;DHT22;30245;51.966;6.292;2024-03-02T02:13:28;14.50;49.50
44537;DHT22;30245;51.966;6.292;2024-03-02T02:15:54;14.40;49.60
44537;DHT22;30245;51.966;6.292;2024-03-02T02:18:19;14.30;49.70
44537;DHT22;30245;51.966;6.292;2024-03-02T02:20:45;14.40;49.70
44537;DHT22;30245;51.966;6.292;2024-03-02T02:23:10;14.40;49.60
44537;DHT22;30245;51.966;6.292;2024-03-02T02:25:38;14.40;49.80
44537;DHT22;30245;51.966;6.292;2024-03-02T02:28:03;14.30;49.80
44537;DHT22;30245;51.966;6.292;2024-03-02T02:30:32;14.40;49.80
44537;DHT22;30245;51.966;6.292;2024-03-02T02:32:58;14.40;49.80
44537;DHT22;30245;51.966;6.292;2024-03-02T02:35:23;14.40;49.90
44537;DHT22;30245;51.966;6.292;2024-03-02T02:37:54;14.40;50.00
44537;DHT22;30245;51.966;6.292;2024-03-02T02:40:19;14.40;50.00
44537;DHT22;30245;51.966;6.292;2024-03-02T02:42:45;14.40;50.00
44537;DHT22;30245;51.966;6.292;2024-03-02T02:45:11;14.30;50.10
44537;DHT22;30245;51.966;6.292;2024-03-02T02:47:38;14.40;50.20
44537;DHT22;30245;51.966;6.292;2024-03-02T02:50:06;14.40;50.30
44537;DHT22;30245;51.966;6.292;2024-03-02T02:52:36;14.40;50.40
44537;DHT22;30245;51.966;6.292;2024-03-02T02:55:06;14.40;50.40
44537;DHT22;30245;51.966;6.292;2024-03-02T02:57:33;14.40;50.50
44537;DHT22;30245;51.966;6.292;2024-03-02T03:00:14;14.40;50.60
44537;DHT22;30245;51.966;6.292;2024-03-02T03:02:41;14.40;50.70
44537;DHT22;30245;51.966;6.292;2024-03-02T03:05:11;14.40;50.80
44537;DHT22;30245;51.966;6.292;2024-03-02T03:07:39;14.40;50.80
44537;DHT22;30245;51.966;6.292;2024-03-02T03:10:05;14.50;50.70
44537;DHT22;30245;51.966;6.292;2024-03-02T03:12:32;14.50;50.60
44537;DHT22;30245;51.966;6.292;2024-03-02T03:14:58;14.50;50.70
44537;DHT22;30245;51.966;6.292;2024-03-02T03:17:23;14.50;50.70
44537;DHT22;30245;51.966;6.292;2024-03-02T03:19:50;14.40;50.80
44537;DHT22;30245;51.966;6.292;2024-03-02T03:22:16;14.40;51.00
44537;DHT22;30245;51.966;6.292;2024-03-02T03:24:41;14.30;51.20
44537;DHT22;30245;51.966;6.292;2024-03-02T03:27:07;14.30;51.20
44537;DHT22;30245;51.966;6.292;2024-03-02T03:29:33;14.30;51.30
44537;DHT22;30245;51.966;6.292;2024-03-02T03:31:58;14.40;51.30
44537;DHT22;30245;51.966;6.292;2024-03-02T03:34:24;14.30;51.40
44537;DHT22;30245;51.966;6.292;2024-03-02T03:36:49;14.30;51.50
44537;DHT22;30245;51.966;6.292;2024-03-02T03:39:15;14.30;51.70
44537;DHT22;30245;51.966;6.292;2024-03-02T03:41:41;14.20;51.80
44537;DHT22;30245;51.966;6.292;2024-03-02T03:44:06;14.20;51.80
44537;DHT22;30245;51.966;6.292;2024-03-02T03:46:32;14.30;51.80
44537;DHT22;30245;51.966;6.292;2024-03-02T03:48:57;14.30;51.70
44537;DHT22;30245;51.966;6.292;2024-03-02T03:51:23;14.30;51.80
44537;DHT22;30245;51.966;6.292;2024-03-02T03:53:48;14.30;51.70
44537;DHT22;30245;51.966;6.292;2024-03-02T03:56:14;14.40;51.70
44537;DHT22;30245;51.966;6.292;2024-03-02T03:58:40;14.40;51.80
44537;DHT22;30245;51.966;6.292;2024-03-02T04:01:05;14.40;51.70
44537;DHT22;30245;51.966;6.292;2024-03-02T04:03:31;14.40;51.60
44537;DHT22;30245;51.966;6.292;2024-03-02T04:05:56;14.40;51.70
44537;DHT22;30245;51.966;6.292;2024-03-02T04:08:22;14.30;52.00
44537;DHT22;30245;51.966;6.292;2024-03-02T04:10:48;14.30;52.10
44537;DHT22;30245;51.966;6.292;2024-03-02T04:13:13;14.20;52.10
44537;DHT22;30245;51.966;6.292;2024-03-02T04:15:39;14.20;52.00
44537;DHT22;30245;51.966;6.292;2024-03-02T04:18:06;14.20;52.00
44537;DHT22;30245;51.966;6.292;2024-03-02T04:20:31;14.20;51.90
44537;DHT22;30245;51.966;6.292;2024-03-02T04:22:57;14.10;52.00
44537;DHT22;30245;51.966;6.292;2024-03-02T04:25:23;14.10;52.10
44537;DHT22;30245;51.966;6.292;2024-03-02T04:27:48;14.10;52.20
44537;DHT22;30245;51.966;6.292;2024-03-02T04:30:14;13.90;52.20
44537;DHT22;30245;51.966;6.292;2024-03-02T04:32:40;13.80;52.30
44537;DHT22;30245;51.966;6.292;2024-03-02T04:35:06;13.80;52.50
44537;DHT22;30245;51.966;6.292;2024-03-02T04:37:35;13.80;52.50
44537;DHT22;30245;51.966;6.292;2024-03-02T04:40:01;13.70;52.50
44537;DHT22;30245;51.966;6.292;2024-03-02T04:42:26;13.70;52.50
44537;DHT22;30245;51.966;6.292;2024-03-02T04:44:52;13.70;52.60
44537;DHT22;30245;51.966;6.292;2024-03-02T04:47:17;13.70;52.50
44537;DHT22;30245;51.966;6.292;2024-03-02T04:49:43;13.70;52.50
44537;DHT22;30245;51.966;6.292;2024-03-02T04:52:09;13.70;52.50
44537;DHT22;30245;51.966;6.292;2024-03-02T04:54:34;13.60;52.40
44537;DHT22;30245;51.966;6.292;2024-03-02T04:57:20;13.60;52.50
44537;DHT22;30245;51.966;6.292;2024-03-02T04:59:45;13.60;52.60
44537;DHT22;30245;51.966;6.292;2024-03-02T05:02:11;13.60;52.50
44537;DHT22;30245;51.966;6.292;2024-03-02T05:04:39;13.50;52.60
44537;DHT22;30245;51.966;6.292;2024-03-02T05:07:05;13.50;52.60
44537;DHT22;30245;51.966;6.292;2024-03-02T05:09:31;13.50;52.70
44537;DHT22;30245;51.966;6.292;2024-03-02T05:11:56;13.40;52.70
44537;DHT22;30245;51.966;6.292;2024-03-02T05:14:42;13.50;52.80
44537;DHT22;30245;51.966;6.292;2024-03-02T05:17:08;13.50;52.50
44537;DHT22;30245;51.966;6.292;2024-03-02T05:19:34;13.60;52.40
44537;DHT22;30245;51.966;6.292;2024-03-02T05:21:59;13.50;53.00
44537;DHT22;30245;51.966;6.292;2024-03-02T05:24:25;13.50;52.60
44537;DHT22;30245;51.966;6.292;2024-03-02T05:26:53;13.60;52.50
44537;DHT22;30245;51.966;6.292;2024-03-02T05:29:19;13.60;52.30
44537;DHT22;30245;51.966;6.292;2024-03-02T05:31:44;13.70;52.30
44537;DHT22;30245;51.966;6.292;2024-03-02T05:34:10;13.70;52.30
44537;DHT22;30245;51.966;6.292;2024-03-02T05:36:36;13.60;52.30
44537;DHT22;30245;51.966;6.292;2024-03-02T05:39:02;13.50;52.40
44537;DHT22;30245;51.966;6.292;2024-03-02T05:41:30;13.40;52.60
44537;DHT22;30245;51.966;6.292;2024-03-02T05:43:56;13.50;52.50
44537;DHT22;30245;51.966;6.292;2024-03-02T05:46:21;13.60;52.40
44537;DHT22;30245;51.966;6.292;2024-03-02T05:48:47;13.60;52.40
44537;DHT22;30245;51.966;6.292;2024-03-02T05:51:13;13.60;52.40
44537;DHT22;30245;51.966;6.292;2024-03-02T05:53:38;13.60;52.40
44537;DHT22;30245;51.966;6.292;2024-03-02T05:56:05;13.50;52.50
44537;DHT22;30245;51.966;6.292;2024-03-02T05:58:31;13.50;52.60
44537;DHT22;30245;51.966;6.292;2024-03-02T06:01:26;13.50;52.60
44537;DHT22;30245;51.966;6.292;2024-03-02T06:03:56;13.60;52.50
44537;DHT22;30245;51.966;6.292;2024-03-02T06:06:23;13.50;52.30
44537;DHT22;30245;51.966;6.292;2024-03-02T06:08:48;13.50;52.40
44537;DHT22;30245;51.966;6.292;2024-03-02T06:11:14;13.50;52.50
44537;DHT22;30245;51.966;6.292;2024-03-02T06:13:39;13.50;52.60
44537;DHT22;30245;51.966;6.292;2024-03-02T06:16:05;13.50;52.70
44537;DHT22;30245;51.966;6.292;2024-03-02T06:18:30;13.50;52.60
44537;DHT22;30245;51.966;6.292;2024-03-02T06:20:56;13.50;52.60
44537;DHT22;30245;51.966;6.292;2024-03-02T06:23:22;13.50;52.60
44537;DHT22;30245;51.966;6.292;2024-03-02T06:25:47;13.50;52.50
44537;DHT22;30245;51.966;6.292;2024-03-02T06:28:13;13.60;52.50
44537;DHT22;30245;51.966;6.292;2024-03-02T06:30:41;13.60;52.50
44537;DHT22;30245;51.966;6.292;2024-03-02T06:33:07;13.60;52.40
44537;DHT22;30245;51.966;6.292;2024-03-02T06:35:33;13.60;52.40
44537;DHT22;30245;51.966;6.292;2024-03-02T06:37:58;13.70;52.40
44537;DHT22;30245;51.966;6.292;2024-03-02T06:40:24;13.60;52.40
44537;DHT22;30245;51.966;6.292;2024-03-02T06:42:49;13.60;52.50
44537;DHT22;30245;51.966;6.292;2024-03-02T06:45:15;13.60;52.40
44537;DHT22;30245;51.966;6.292;2024-03-02T06:47:40;13.60;52.40
44537;DHT22;30245;51.966;6.292;2024-03-02T06:50:06;13.70;52.30
44537;DHT22;30245;51.966;6.292;2024-03-02T06:52:32;13.70;52.30
44537;DHT22;30245;51.966;6.292;2024-03-02T06:54:58;13.70;52.30
44537;DHT22;30245;51.966;6.292;2024-03-02T06:57:23;13.70;52.30
44537;DHT22;30245;51.966;6.292;2024-03-02T06:59:50;13.70;52.20
44537;DHT22;30245;51.966;6.292;2024-03-02T07:02:16;13.70;52.30
44537;DHT22;30245;51.966;6.292;2024-03-02T07:04:42;13.70;52.30
44537;DHT22;30245;51.966;6.292;2024-03-02T07:07:08;13.70;52.20
44537;DHT22;30245;51.966;6.292;2024-03-02T07:09:33;13.70;52.20
44537;DHT22;30245;51.966;6.292;2024-03-02T07:11:59;13.70;52.50
44537;DHT22;30245;51.966;6.292;2024-03-02T07:14:24;13.70;52.50
44537;DHT22;30245;51.966;6.292;2024-03-02T07:17:10;13.70;52.60
44537;DHT22;30245;51.966;6.292;2024-03-02T07:19:35;13.60;52.70
44537;DHT22;30245;51.966;6.292;2024-03-02T07:22:01;13.60;52.80
44537;DHT22;30245;51.966;6.292;2024-03-02T07:24:31;13.70;52.80
44537;DHT22;30245;51.966;6.292;2024-03-02T07:26:56;13.70;52.80
44537;DHT22;30245;51.966;6.292;2024-03-02T07:29:22;13.80;52.70
44537;DHT22;30245;51.966;6.292;2024-03-02T07:31:47;13.80;52.60
44537;DHT22;30245;51.966;6.292;2024-03-02T07:34:13;13.80;52.60
44537;DHT22;30245;51.966;6.292;2024-03-02T07:36:39;13.90;52.50
44537;DHT22;30245;51.966;6.292;2024-03-02T07:39:04;14.00;52.40
44537;DHT22;30245;51.966;6.292;2024-03-02T07:41:30;14.10;52.40
44537;DHT22;30245;51.966;6.292;2024-03-02T07:43:56;14.10;52.50
44537;DHT22;30245;51.966;6.292;2024-03-02T07:46:22;14.10;52.40
44537;DHT22;30245;51.966;6.292;2024-03-02T07:48:47;14.10;52.60
44537;DHT22;30245;51.966;6.292;2024-03-02T07:51:13;14.00;52.60
44537;DHT22;30245;51.966;6.292;2024-03-02T07:53:39;14.00;52.70
44537;DHT22;30245;51.966;6.292;2024-03-02T07:56:05;14.10;52.80
44537;DHT22;30245;51.966;6.292;2024-03-02T07:58:31;14.10;53.40
44537;DHT22;30245;51.966;6.292;2024-03-02T08:00:59;14.10;53.40
44537;DHT22;30245;51.966;6.292;2024-03-02T08:03:26;14.10;52.80
44537;DHT22;30245;51.966;6.292;2024-03-02T08:05:52;14.10;52.90
44537;DHT22;30245;51.966;6.292;2024-03-02T08:08:18;14.10;53.00
44537;DHT22;30245;51.966;6.292;2024-03-02T08:10:44;14.10;53.00
44537;DHT22;30245;51.966;6.292;2024-03-02T08:13:09;14.10;53.20
44537;DHT22;30245;51.966;6.292;2024-03-02T08:15:35;14.20;53.30
44537;DHT22;30245;51.966;6.292;2024-03-02T08:18:00;14.20;53.20
44537;DHT22;30245;51.966;6.292;2024-03-02T08:20:26;14.30;53.20
44537;DHT22;30245;51.966;6.292;2024-03-02T08:22:52;14.40;52.90
44537;DHT22;30245;51.966;6.292;2024-03-02T08:25:20;14.60;52.90
44537;DHT22;30245;51.966;6.292;2024-03-02T08:27:46;15.10;52.70
44537;DHT22;30245;51.966;6.292;2024-03-02T08:30:12;15.60;51.90
44537;DHT22;30245;51.966;6.292;2024-03-02T08:32:38;15.90;51.00
44537;DHT22;30245;51.966;6.292;2024-03-02T08:35:04;16.20;50.60
44537;DHT22;30245;51.966;6.292;2024-03-02T08:37:30;16.40;50.30
44537;DHT22;30245;51.966;6.292;2024-03-02T08:39:56;16.60;49.50
44537;DHT22;30245;51.966;6.292;2024-03-02T08:42:22;16.60;49.60
44537;DHT22;30245;51.966;6.292;2024-03-02T08:44:48;16.60;49.50
44537;DHT22;30245;51.966;6.292;2024-03-02T08:47:13;16.90;49.50
44537;DHT22;30245;51.966;6.292;2024-03-02T08:49:39;17.10;48.90
44537;DHT22;30245;51.966;6.292;2024-03-02T08:52:05;17.50;48.80
44537;DHT22;30245;51.966;6.292;2024-03-02T08:54:30;17.80;47.90
44537;DHT22;30245;51.966;6.292;2024-03-02T08:56:56;17.90;47.20
44537;DHT22;30245;51.966;6.292;2024-03-02T08:59:22;18.20;47.30
44537;DHT22;30245;51.966;6.292;2024-03-02T09:01:47;18.30;46.80
44537;DHT22;30245;51.966;6.292;2024-03-02T09:04:13;18.60;46.30
44537;DHT22;30245;51.966;6.292;2024-03-02T09:06:39;18.80;45.90
44537;DHT22;30245;51.966;6.292;2024-03-02T09:09:04;19.10;45.50
44537;DHT22;30245;51.966;6.292;2024-03-02T09:11:30;19.40;44.80
44537;DHT22;30245;51.966;6.292;2024-03-02T09:13:56;19.60;44.30
44537;DHT22;30245;51.966;6.292;2024-03-02T09:16:23;19.90;43.80
44537;DHT22;30245;51.966;6.292;2024-03-02T09:18:49;20.00;43.30
44537;DHT22;30245;51.966;6.292;2024-03-02T09:21:15;20.10;43.00
44537;DHT22;30245;51.966;6.292;2024-03-02T09:23:40;20.20;43.00
44537;DHT22;30245;51.966;6.292;2024-03-02T09:26:06;20.20;42.40
44537;DHT22;30245;51.966;6.292;2024-03-02T09:28:31;20.00;42.40
44537;DHT22;30245;51.966;6.292;2024-03-02T09:30:57;19.90;42.60
44537;DHT22;30245;51.966;6.292;2024-03-02T09:33:23;20.00;42.50
44537;DHT22;30245;51.966;6.292;2024-03-02T09:35:49;20.00;42.00
44537;DHT22;30245;51.966;6.292;2024-03-02T09:38:15;20.10;41.60
44537;DHT22;30245;51.966;6.292;2024-03-02T09:40:41;20.10;41.40
44537;DHT22;30245;51.966;6.292;2024-03-02T09:43:07;20.00;41.40
44537;DHT22;30245;51.966;6.292;2024-03-02T09:45:33;19.80;41.50
44537;DHT22;30245;51.966;6.292;2024-03-02T09:47:59;19.80;41.70
44537;DHT22;30245;51.966;6.292;2024-03-02T09:50:25;20.00;41.70
44537;DHT22;30245;51.966;6.292;2024-03-02T09:52:50;20.20;41.40
44537;DHT22;30245;51.966;6.292;2024-03-02T09:55:18;20.30;41.20
44537;DHT22;30245;51.966;6.292;2024-03-02T09:57:45;20.60;40.70
44537;DHT22;30245;51.966;6.292;2024-03-02T10:00:11;20.70;40.20
44537;DHT22;30245;51.966;6.292;2024-03-02T10:02:41;20.90;40.20
44537;DHT22;30245;51.966;6.292;2024-03-02T10:05:08;21.10;39.70
44537;DHT22;30245;51.966;6.292;2024-03-02T10:07:35;21.20;39.00
44537;DHT22;30245;51.966;6.292;2024-03-02T10:10:13;21.20;39.00
44537;DHT22;30245;51.966;6.292;2024-03-02T10:12:39;21.20;39.20
44537;DHT22;30245;51.966;6.292;2024-03-02T10:15:05;21.30;38.90
44537;DHT22;30245;51.966;6.292;2024-03-02T10:17:31;21.30;38.70
44537;DHT22;30245;51.966;6.292;2024-03-02T10:19:57;21.40;38.60
44537;DHT22;30245;51.966;6.292;2024-03-02T10:22:23;21.40;38.50
44537;DHT22;30245;51.966;6.292;2024-03-02T10:24:49;21.60;38.70
44537;DHT22;30245;51.966;6.292;2024-03-02T10:27:22;21.80;37.90
44537;DHT22;30245;51.966;6.292;2024-03-02T10:29:48;22.10;37.70
44537;DHT22;30245;51.966;6.292;2024-03-02T10:32:15;22.10;37.30
44537;DHT22;30245;51.966;6.292;2024-03-02T10:34:42;21.90;37.40
44537;DHT22;30245;51.966;6.292;2024-03-02T10:37:08;21.60;37.60
44537;DHT22;30245;51.966;6.292;2024-03-02T10:39:37;21.50;38.00
44537;DHT22;30245;51.966;6.292;2024-03-02T10:42:06;21.50;37.90
44537;DHT22;30245;51.966;6.292;2024-03-02T10:44:32;21.40;37.90
44537;DHT22;30245;51.966;6.292;2024-03-02T10:47:02;21.30;38.20
44537;DHT22;30245;51.966;6.292;2024-03-02T10:49:30;21.50;38.00
44537;DHT22;30245;51.966;6.292;2024-03-02T10:52:00;21.70;38.00
44537;DHT22;30245;51.966;6.292;2024-03-02T10:54:26;22.20;37.40
44537;DHT22;30245;51.966;6.292;2024-03-02T10:56:53;22.40;37.00
44537;DHT22;30245;51.966;6.292;2024-03-02T10:59:27;22.30;36.00
44537;DHT22;30245;51.966;6.292;2024-03-02T11:01:56;22.00;36.20
44537;DHT22;30245;51.966;6.292;2024-03-02T11:04:26;22.00;36.50
44537;DHT22;30245;51.966;6.292;2024-03-02T11:06:56;22.10;36.60
44537;DHT22;30245;51.966;6.292;2024-03-02T11:09:27;22.30;36.30
44537;DHT22;30245;51.966;6.292;2024-03-02T11:12:09;22.40;35.20
44537;DHT22;30245;51.966;6.292;2024-03-02T11:14:38;22.30;35.30
44537;DHT22;30245;51.966;6.292;2024-03-02T11:17:06;22.20;35.30
44537;DHT22;30245;51.966;6.292;2024-03-02T11:19:32;22.10;35.50
44537;DHT22;30245;51.966;6.292;2024-03-02T11:21:59;22.10;35.60
44537;DHT22;30245;51.966;6.292;2024-03-02T11:27:09;22.40;35.60
44537;DHT22;30245;51.966;6.292;2024-03-02T11:32:17;22.80;35.70
44537;DHT22;30245;51.966;6.292;2024-03-02T11:34:46;23.00;35.30
44537;DHT22;30245;51.966;6.292;2024-03-02T11:37:13;23.20;35.10
44537;DHT22;30245;51.966;6.292;2024-03-02T11:39:39;23.30;34.80
44537;DHT22;30245;51.966;6.292;2024-03-02T11:42:09;23.20;34.80
44537;DHT22;30245;51.966;6.292;2024-03-02T11:44:36;23.10;34.90
44537;DHT22;30245;51.966;6.292;2024-03-02T11:47:05;23.10;35.00
44537;DHT22;30245;51.966;6.292;2024-03-02T11:49:42;23.10;34.80
44537;DHT22;30245;51.966;6.292;2024-03-02T11:52:12;22.90;34.80
44537;DHT22;30245;51.966;6.292;2024-03-02T11:54:39;22.90;35.00
44537;DHT22;30245;51.966;6.292;2024-03-02T11:57:06;22.90;34.90
44537;DHT22;30245;51.966;6.292;2024-03-02T11:59:32;23.00;34.90
44537;DHT22;30245;51.966;6.292;2024-03-02T12:01:59;23.10;34.80
44537;DHT22;30245;51.966;6.292;2024-03-02T12:04:25;23.10;34.50
44537;DHT22;30245;51.966;6.292;2024-03-02T12:06:59;23.10;34.40
44537;DHT22;30245;51.966;6.292;2024-03-02T12:09:26;23.10;34.30
44537;DHT22;30245;51.966;6.292;2024-03-02T12:12:04;23.00;34.30
44537;DHT22;30245;51.966;6.292;2024-03-02T12:14:31;22.80;34.40
44537;DHT22;30245;51.966;6.292;2024-03-02T12:16:57;22.80;34.70
44537;DHT22;30245;51.966;6.292;2024-03-02T12:19:25;22.70;34.60
44537;DHT22;30245;51.966;6.292;2024-03-02T12:21:51;22.60;34.80
44537;DHT22;30245;51.966;6.292;2024-03-02T12:24:17;22.70;35.50
44537;DHT22;30245;51.966;6.292;2024-03-02T12:26:43;22.80;34.60
44537;DHT22;30245;51.966;6.292;2024-03-02T12:29:09;22.80;34.20
44537;DHT22;30245;51.966;6.292;2024-03-02T12:31:35;22.80;34.10
44537;DHT22;30245;51.966;6.292;2024-03-02T12:34:02;22.90;34.00
44537;DHT22;30245;51.966;6.292;2024-03-02T12:36:27;22.90;33.90
44537;DHT22;30245;51.966;6.292;2024-03-02T12:38:53;22.90;34.10
44537;DHT22;30245;51.966;6.292;2024-03-02T12:41:20;22.90;33.90
44537;DHT22;30245;51.966;6.292;2024-03-02T12:43:46;22.70;33.80
44537;DHT22;30245;51.966;6.292;2024-03-02T12:46:11;22.80;34.10
44537;DHT22;30245;51.966;6.292;2024-03-02T12:48:37;22.80;33.90
44537;DHT22;30245;51.966;6.292;2024-03-02T12:51:06;22.70;34.00
44537;DHT22;30245;51.966;6.292;2024-03-02T12:53:31;22.50;34.00
44537;DHT22;30245;51.966;6.292;2024-03-02T12:55:58;22.30;34.00
44537;DHT22;30245;51.966;6.292;2024-03-02T12:58:23;22.10;34.20
44537;DHT22;30245;51.966;6.292;2024-03-02T13:00:49;21.80;34.50
44537;DHT22;30245;51.966;6.292;2024-03-02T13:03:14;21.60;34.80
44537;DHT22;30245;51.966;6.292;2024-03-02T13:05:48;21.50;34.70
44537;DHT22;30245;51.966;6.292;2024-03-02T13:08:14;21.30;34.60
44537;DHT22;30245;51.966;6.292;2024-03-02T13:10:40;21.20;34.80
44537;DHT22;30245;51.966;6.292;2024-03-02T13:13:06;21.20;34.90
44537;DHT22;30245;51.966;6.292;2024-03-02T13:15:33;21.10;35.00
44537;DHT22;30245;51.966;6.292;2024-03-02T13:17:59;21.00;35.00
44537;DHT22;30245;51.966;6.292;2024-03-02T13:20:32;21.00;35.10
44537;DHT22;30245;51.966;6.292;2024-03-02T13:22:57;20.80;35.30
44537;DHT22;30245;51.966;6.292;2024-03-02T13:25:23;20.90;35.40
44537;DHT22;30245;51.966;6.292;2024-03-02T13:27:49;20.90;35.40
44537;DHT22;30245;51.966;6.292;2024-03-02T13:30:14;21.10;35.40
44537;DHT22;30245;51.966;6.292;2024-03-02T13:32:40;21.20;35.50
44537;DHT22;30245;51.966;6.292;2024-03-02T13:35:05;21.20;35.50
44537;DHT22;30245;51.966;6.292;2024-03-02T13:37:31;21.20;35.50
44537;DHT22;30245;51.966;6.292;2024-03-02T13:39:56;21.30;36.40
44537;DHT22;30245;51.966;6.292;2024-03-02T13:42:22;21.60;35.70
44537;DHT22;30245;51.966;6.292;2024-03-02T13:44:48;21.70;35.60
44537;DHT22;30245;51.966;6.292;2024-03-02T13:47:15;21.80;35.40
44537;DHT22;30245;51.966;6.292;2024-03-02T13:49:41;21.90;35.20
44537;DHT22;30245;51.966;6.292;2024-03-02T13:52:10;21.80;35.30
44537;DHT22;30245;51.966;6.292;2024-03-02T13:54:46;21.80;35.30
44537;DHT22;30245;51.966;6.292;2024-03-02T13:57:12;21.60;35.30
44537;DHT22;30245;51.966;6.292;2024-03-02T13:59:41;21.40;35.60
44537;DHT22;30245;51.966;6.292;2024-03-02T14:02:07;21.30;35.80
44537;DHT22;30245;51.966;6.292;2024-03-02T14:04:34;21.30;35.90
44537;DHT22;30245;51.966;6.292;2024-03-02T14:07:00;21.20;36.10
44537;DHT22;30245;51.966;6.292;2024-03-02T14:09:26;21.20;36.20
44537;DHT22;30245;51.966;6.292;2024-03-02T14:11:53;21.20;36.10
44537;DHT22;30245;51.966;6.292;2024-03-02T14:14:18;21.10;36.30
44537;DHT22;30245;51.966;6.292;2024-03-02T14:16:44;21.00;36.40
44537;DHT22;30245;51.966;6.292;2024-03-02T14:19:13;20.90;36.40
44537;DHT22;30245;51.966;6.292;2024-03-02T14:21:39;20.90;36.40
44537;DHT22;30245;51.966;6.292;2024-03-02T14:24:05;20.90;36.40
44537;DHT22;30245;51.966;6.292;2024-03-02T14:26:32;20.90;36.50
44537;DHT22;30245;51.966;6.292;2024-03-02T14:28:59;20.90;36.50
44537;DHT22;30245;51.966;6.292;2024-03-02T14:31:26;20.90;36.40
44537;DHT22;30245;51.966;6.292;2024-03-02T14:33:52;20.80;36.40
44537;DHT22;30245;51.966;6.292;2024-03-02T14:36:18;20.80;36.50
44537;DHT22;30245;51.966;6.292;2024-03-02T14:38:44;20.70;36.50
44537;DHT22;30245;51.966;6.292;2024-03-02T14:41:09;20.60;36.70
44537;DHT22;30245;51.966;6.292;2024-03-02T14:43:35;20.60;36.90
44537;DHT22;30245;51.966;6.292;2024-03-02T14:46:03;20.50;37.00
44537;DHT22;30245;51.966;6.292;2024-03-02T14:48:29;20.60;37.00
44537;DHT22;30245;51.966;6.292;2024-03-02T14:50:55;20.60;37.00
44537;DHT22;30245;51.966;6.292;2024-03-02T14:53:20;20.60;37.00
44537;DHT22;30245;51.966;6.292;2024-03-02T14:55:46;20.60;37.20
44537;DHT22;30245;51.966;6.292;2024-03-02T14:58:11;20.50;37.30
44537;DHT22;30245;51.966;6.292;2024-03-02T15:00:37;20.50;37.40
44537;DHT22;30245;51.966;6.292;2024-03-02T15:03:04;20.50;38.10
44537;DHT22;30245;51.966;6.292;2024-03-02T15:05:31;20.60;37.40
44537;DHT22;30245;51.966;6.292;2024-03-02T15:07:57;20.90;37.30
44537;DHT22;30245;51.966;6.292;2024-03-02T15:10:24;21.30;37.00
44537;DHT22;30245;51.966;6.292;2024-03-02T15:12:50;21.70;36.70
44537;DHT22;30245;51.966;6.292;2024-03-02T15:15:16;21.90;36.30
44537;DHT22;30245;51.966;6.292;2024-03-02T15:17:41;22.00;36.00
44537;DHT22;30245;51.966;6.292;2024-03-02T15:20:07;22.00;35.90
44537;DHT22;30245;51.966;6.292;2024-03-02T15:22:33;21.90;36.00
44537;DHT22;30245;51.966;6.292;2024-03-02T15:24:59;21.70;36.30
44537;DHT22;30245;51.966;6.292;2024-03-02T15:27:24;21.50;36.80
44537;DHT22;30245;51.966;6.292;2024-03-02T15:29:52;21.30;37.10
44537;DHT22;30245;51.966;6.292;2024-03-02T15:32:18;21.20;37.40
44537;DHT22;30245;51.966;6.292;2024-03-02T15:34:44;21.10;37.40
44537;DHT22;30245;51.966;6.292;2024-03-02T15:37:09;21.20;37.20
44537;DHT22;30245;51.966;6.292;2024-03-02T15:39:35;21.50;37.10